Hlavní strana
METAR-TAF:

METAR-TAF

Letiště :

Győr, Maďarsko

zeměpisná šířka: 47-37-28N, zeměpisná délka: 017-48-49E, výška: 129 m

Aktuální stav počasí

Zpráva byla vytvořena před 20 hodinami a 41 minutami, v 14:45 UTC
Severovýchodní vítr 7 kt
Teplota 0°C
Vlhkost vzduchu 100%
Tlak 1013 hPa
Viditelnost: 3000 m
Oblačno až skoro zataženo ve výšce 600 ft
Zataženo ve výšce 2000 ft
slabé sněžení, kouřmo

METAR: LHPR 201445Z 05007KT 3000 -SN BR BKN006 OVC020 00/00 Q1013 RMK YLO

Čas: 12:26 (11:26 UTC)

Předpověď počasí

Zpráva byla vytvořena před 21 hodinami a 11 minutami, v 14:15 UTC
Předpověď platná od 20 v 15 UTC do 20 v 24 UTC
Východoseverovýchodní vítr 9 kt
Viditelnost: 5000 m
Polojasno ve výšce 1000 ft
Zataženo ve výšce 2000 ft
slabé sněžení
Dočasný
od 20 v 15 UTC do 20 v 24 UTC
Viditelnost: 1000 m
Oblačno až skoro zataženo ve výšce 400 ft
Zataženo ve výšce 1500 ft
sníh

TAF: LHPR 201415Z 2015/2024 06009KT 5000 -SN SCT010 OVC020 TEMPO 2015/2024 1000 SN BKN004 OVC015

Stav a předpovědi počasí z více než 4 000 letišť (zprávy METAR a TAF).

Červené a žluté tečky na mapě představují dostupné meteorologické stanice.

Když kurzor umístíte na tečku, zobrazí se název stanice.

Pak kliknutím zobrazíte stav a předpověď počasí.

Chcete-li změnit mapu, kliknutím na zelené tlačítko se znaménkem +mapu přiblížíte, kliknutím na zelené tlačítko se znaménkem – mapu oddálíte a kliknutím na zelené šipky přejdete na sousední mapy.


METAR-TAF: